Time;durP1;ratioP1;P1;durP2;ratioP2;P2;SDS_P1;SDS_P2;PMS_P1;PMS_P2;Temp;Humidity;BMP_temperature;BMP_pressure;BME280_temperature;BME280_humidity;BME280_pressure;Samples;Min_cycle;Max_cycle;Signal;HPM_P1;HPM_P2
2022/08/03 00:00:40;;;;;;;;;22.00;22.00;;;;;20.59;76.84;99699.75;6285608;20;3585684;-64
2022/08/03 00:03:09;;;;;;;;;23.33;23.33;;;;;20.55;77.63;99701.06;6285121;20;3586748;-64
2022/08/03 00:05:38;;;;;;;;;28.00;24.00;;;;;20.31;77.44;99699.81;6287717;20;3589572;-64
2022/08/03 00:08:07;;;;;;;;;22.00;20.00;;;;;20.25;78.62;99697.72;6290159;20;3583586;-64
2022/08/03 00:10:36;;;;;;;;;22.00;21.00;;;;;20.18;78.73;99700.22;6288883;20;3580425;-64
2022/08/03 00:13:05;;;;;;;;;22.50;21.00;;;;;20.28;78.86;99699.28;6285219;20;2841937;-64
2022/08/03 00:15:34;;;;;;;;;21.67;21.67;;;;;20.30;78.93;99695.41;6286003;20;3582514;-64
2022/08/03 00:18:03;;;;;;;;;23.00;22.00;;;;;20.32;78.44;99698.78;6284485;20;2848169;-64
2022/08/03 00:20:33;;;;;;;;;23.33;20.33;;;;;20.33;78.50;99697.81;6314678;20;2839849;-64
2022/08/03 00:23:05;;;;;;;;;21.33;20.00;;;;;20.20;78.79;99696.50;6315286;20;3574203;-64
2022/08/03 00:25:35;;;;;;;;;22.33;21.00;;;;;20.34;78.43;99699.50;6315782;20;3587730;-64
2022/08/03 00:28:05;;;;;;;;;20.00;18.00;;;;;20.18;78.02;99693.91;6287231;20;3584638;-64
2022/08/03 00:30:36;;;;;;;;;21.33;21.33;;;;;19.99;78.15;99689.47;6288153;20;3583724;-64
2022/08/03 00:33:05;;;;;;;;;24.00;22.33;;;;;19.61;80.51;99696.84;6286948;20;3580455;-64
2022/08/03 00:35:35;;;;;;;;;21.67;20.00;;;;;19.56;80.32;99699.16;6287049;20;3577312;-64
2022/08/03 00:38:19;;;;;;;;;22.00;22.00;;;;;19.42;80.68;99696.97;6287091;20;3578511;-64
2022/08/03 00:40:48;;;;;;;;;19.67;19.67;;;;;19.27;81.81;99699.31;6283322;20;3558647;-64
2022/08/03 00:43:17;;;;;;;;;20.67;20.67;;;;;19.35;80.64;99701.28;6320044;20;3582529;-64
2022/08/03 00:45:47;;;;;;;;;23.67;23.00;;;;;19.64;79.51;99692.94;6284608;20;3598247;-65
2022/08/03 00:48:18;;;;;;;;;23.33;21.67;;;;;19.70;79.79;99700.56;6317657;20;3580449;-59
2022/08/03 00:51:01;;;;;;;;;22.67;21.00;;;;;19.73;79.92;99694.81;6287694;20;3583586;-59
2022/08/03 00:53:30;;;;;;;;;25.33;22.33;;;;;20.05;79.25;99701.63;6282106;20;3584636;-59
2022/08/03 00:55:59;;;;;;;;;20.00;20.00;;;;;19.98;79.34;99698.63;6281134;20;2837169;-59
2022/08/03 00:58:28;;;;;;;;;27.33;23.33;;;;;19.63;80.96;99703.00;6314862;20;3592943;-59
2022/08/03 01:00:58;;;;;;;;;22.67;22.00;;;;;19.98;79.95;99704.09;6281018;20;2841084;-59
2022/08/03 01:03:27;;;;;;;;;21.67;21.67;;;;;20.11;79.64;99701.84;6319963;20;3584727;-59
2022/08/03 01:06:41;;;;;;;;;29.00;25.67;;;;;19.79;81.01;99705.09;6286237;20;3599182;-59
2022/08/03 01:09:59;;;;;;;;;25.00;24.00;;;;;19.77;81.22;99703.53;6279280;20;3583602;-60
2022/08/03 01:13:07;;;;;;;;;27.00;25.00;;;;;19.47;82.95;99700.94;6318812;20;3598157;-59
2022/08/03 01:16:20;;;;;;;;;25.33;23.67;;;;;19.55;81.91;99699.31;6282526;20;3587751;-59
2022/08/03 01:19:47;;;;;;;;;27.67;25.67;;;;;19.75;81.63;99695.53;6283273;20;3595195;-59
2022/08/03 01:22:51;;;;;;;;;21.33;21.33;;;;;19.34;83.17;99694.97;6310941;20;3586796;-59
2022/08/03 01:26:05;;;;;;;;;21.67;21.67;;;;;19.28;82.91;99696.44;6284626;20;3579470;-59
2022/08/03 01:30:09;;;;;;;;;29.00;27.67;;;;;19.49;82.66;99698.06;6288438;20;3577348;-59
2022/08/03 01:33:05;;;;;;;;;24.00;24.00;;;;;19.46;82.87;99701.09;6279492;20;3602427;-59
2022/08/03 01:36:02;;;;;;;;;25.67;24.33;;;;;19.77;81.88;99701.66;6278855;20;3604437;-59
2022/08/03 01:38:42;;;;;;;;;21.33;20.00;;;;;19.56;82.84;99701.88;6281475;20;3577476;-59
2022/08/03 01:41:21;;;;;;;;;24.00;22.33;;;;;19.60;82.61;99699.72;6278390;20;2846146;-60
2022/08/03 01:43:52;;;;;;;;;24.67;24.67;;;;;19.44;82.73;99695.78;6312784;20;3594027;-60
2022/08/03 01:46:43;;;;;;;;;24.00;20.67;;;;;19.25;82.68;99702.19;6281177;20;3584725;-59
2022/08/03 01:49:17;;;;;;;;;25.33;24.00;;;;;19.32;82.17;99697.00;6284499;20;3588749;-55
2022/08/03 01:51:48;;;;;;;;;21.67;21.67;;;;;19.44;81.97;99695.78;6282931;20;3585663;-58
2022/08/03 01:54:42;;;;;;;;;22.00;21.33;;;;;19.06;83.09;99694.09;6282848;20;3573248;-58
2022/08/03 01:57:11;;;;;;;;;25.33;25.00;;;;;18.95;83.51;99689.69;6280687;20;3579448;-58
2022/08/03 01:59:42;;;;;;;;;25.00;25.00;;;;;18.79;84.56;99684.00;6281198;20;3586708;-57
2022/08/03 02:02:15;;;;;;;;;25.33;25.33;;;;;18.96;84.40;99687.84;6282025;20;3588916;-58
2022/08/03 02:05:08;;;;;;;;;25.67;23.33;;;;;19.04;83.49;99685.25;6287579;20;3594133;-58
2022/08/03 02:07:41;;;;;;;;;27.33;22.00;;;;;18.96;83.97;99687.84;6286160;20;3594996;-58
2022/08/03 02:10:15;;;;;;;;;30.00;28.67;;;;;19.24;83.47;99688.72;6284871;20;3600366;-66
2022/08/03 02:13:07;;;;;;;;;26.67;25.00;;;;;19.42;82.27;99689.63;6287996;20;3602347;-67
2022/08/03 02:15:38;;;;;;;;;28.33;25.33;;;;;19.35;83.14;99690.38;6290214;20;3596054;-65
2022/08/03 02:18:09;;;;;;;;;24.00;24.00;;;;;19.26;84.29;99692.16;6286743;20;3586805;-65
2022/08/03 02:20:41;;;;;;;;;25.67;25.67;;;;;19.33;84.95;99693.28;6286714;20;3588837;-66
2022/08/03 02:23:10;;;;;;;;;26.00;24.33;;;;;19.39;84.80;99687.22;6285900;20;3598183;-67
2022/08/03 02:25:47;;;;;;;;;26.33;24.67;;;;;19.45;84.92;99686.59;6318361;20;3587732;-65
2022/08/03 02:28:20;;;;;;;;;28.00;25.00;;;;;19.41;85.27;99696.09;6286207;20;3600342;-66
2022/08/03 02:30:54;;;;;;;;;26.00;26.00;;;;;19.47;84.79;99689.19;6287214;20;3596048;-68
2022/08/03 02:33:36;;;;;;;;;28.00;26.00;;;;;19.34;85.34;99692.25;6286508;20;3599340;-67
2022/08/03 02:36:07;;;;;;;;;24.00;23.00;;;;;19.24;86.20;99689.56;6285385;20;3584629;-66
2022/08/03 02:38:42;;;;;;;;;29.00;26.00;;;;;19.28;86.67;99698.31;6288075;20;3604395;-67
2022/08/03 02:41:19;;;;;;;;;28.67;26.67;;;;;19.35;86.87;99693.09;6287207;20;3600254;-67
2022/08/03 02:43:53;;;;;;;;;29.67;28.67;;;;;19.33;87.27;99690.56;6287401;20;3590844;-67
2022/08/03 02:46:41;;;;;;;;;26.67;26.67;;;;;19.25;87.50;99690.47;6284666;20;3600357;-67
2022/08/03 02:49:13;;;;;;;;;26.00;24.33;;;;;19.35;86.85;99688.50;6288393;20;3589875;-65
2022/08/03 02:52:03;;;;;;;;;28.00;26.00;;;;;19.25;87.12;99691.31;6287224;20;3603571;-67
2022/08/03 02:54:33;;;;;;;;;31.00;29.67;;;;;19.07;87.69;99693.94;6287533;20;3593402;-67
2022/08/03 02:57:03;;;;;;;;;27.00;26.00;;;;;19.11;88.41;99693.66;6284691;20;3602415;-67
2022/08/03 02:59:32;;;;;;;;;32.00;29.00;;;;;19.34;87.08;99696.84;6288626;20;3601311;-67
2022/08/03 03:02:02;;;;;;;;;29.00;28.33;;;;;19.26;87.03;99698.44;6282708;20;3587899;-67
2022/08/03 03:04:31;;;;;;;;;24.33;23.33;;;;;19.21;87.22;99689.03;6287040;20;3598225;-67
2022/08/03 03:07:01;;;;;;;;;29.33;27.33;;;;;18.97;88.70;99698.56;6286593;20;3598162;-60
2022/08/03 03:09:33;;;;;;;;;28.67;27.00;;;;;18.90;89.07;99702.88;6285882;20;3598183;-58
2022/08/03 03:12:13;;;;;;;;;29.33;27.00;;;;;18.88;89.38;99710.34;6284268;20;3604649;-61
2022/08/03 03:14:42;;;;;;;;;29.33;29.33;;;;;18.91;89.44;99703.75;6282845;20;3590884;-60
2022/08/03 03:17:12;;;;;;;;;30.00;28.33;;;;;18.94;89.16;99712.47;6283809;20;3588876;-59
2022/08/03 03:19:43;;;;;;;;;25.33;25.33;;;;;18.97;88.79;99709.44;6285172;20;3600204;-60
2022/08/03 03:22:13;;;;;;;;;27.00;23.67;;;;;18.90;89.48;99702.88;6284845;20;3585859;-60
2022/08/03 03:24:44;;;;;;;;;28.00;26.33;;;;;18.97;88.95;99706.72;6287279;20;3597232;-61
2022/08/03 03:27:14;;;;;;;;;30.00;28.67;;;;;19.05;88.48;99700.53;6281320;20;3599382;-60
2022/08/03 03:29:44;;;;;;;;;24.00;22.00;;;;;19.00;87.47;99702.84;6286386;20;3586782;-61
2022/08/03 03:32:13;;;;;;;;;29.00;24.67;;;;;19.34;86.66;99708.59;6282777;20;3598175;-61
2022/08/03 03:34:43;;;;;;;;;19.50;18.00;;;;;19.10;87.32;99703.69;6282527;20;2835865;-61
2022/08/03 03:37:12;;;;;;;;;24.33;24.33;;;;;19.17;87.40;99706.66;6284554;20;3584626;-60
2022/08/03 03:39:41;;;;;;;;;28.33;26.33;;;;;19.31;86.89;99711.63;6291117;20;3599239;-60
2022/08/03 03:42:09;;;;;;;;;24.67;23.00;;;;;19.29;86.31;99705.47;6289269;20;3588951;-58
2022/08/03 03:44:38;;;;;;;;;29.00;25.33;;;;;19.39;85.19;99703.56;6284807;20;3602413;-59
2022/08/03 03:47:07;;;;;;;;;27.67;24.67;;;;;19.41;84.89;99712.44;6280287;20;3598221;-59
2022/08/03 03:49:36;;;;;;;;;27.67;26.33;;;;;19.69;83.25;99704.28;6285404;20;3595046;-59
2022/08/03 03:52:09;;;;;;;;;28.00;25.00;;;;;19.57;83.13;99713.66;6284287;20;3592946;-65
2022/08/03 03:54:44;;;;;;;;;29.00;24.00;;;;;19.41;83.64;99715.16;6289330;20;3600202;-60
2022/08/03 03:57:12;;;;;;;;;27.00;23.33;;;;;19.75;82.35;99722.75;6283904;20;3604436;-60
2022/08/03 03:59:42;;;;;;;;;25.33;24.67;;;;;19.77;82.82;99712.53;6289681;20;3587991;-60
2022/08/03 04:02:12;;;;;;;;;26.33;25.00;;;;;19.80;83.59;99712.25;6286059;20;3606559;-59
2022/08/03 04:10:59;;;;;;;;;23.00;23.00;;;;;19.89;83.44;99735.00;6287665;20;3576327;-59
2022/08/03 04:14:05;;;;;;;;;24.00;24.00;;;;;19.93;82.66;99730.94;6284963;20;3602329;-58
2022/08/03 04:16:40;;;;;;;;;23.33;23.33;;;;;20.29;81.55;99729.09;6282571;20;3586750;-58
2022/08/03 04:19:47;;;;;;;;;24.00;24.00;;;;;20.38;80.94;99738.25;6284750;20;3585712;-59
2022/08/03 04:22:25;;;;;;;;;25.33;23.00;;;;;20.28;82.15;99743.75;6287128;20;3580486;-59
2022/08/03 04:25:09;;;;;;;;;23.67;23.00;;;;;20.44;81.41;99745.78;6283241;20;3600312;-59
2022/08/03 04:27:41;;;;;;;;;21.00;21.00;;;;;20.56;80.29;99751.88;6279205;20;3572132;-59
2022/08/03 04:30:11;;;;;;;;;24.67;22.67;;;;;20.79;80.06;99746.78;6286777;20;3586685;-59
2022/08/03 04:32:40;;;;;;;;;23.33;22.00;;;;;21.07;78.16;99749.41;6285554;20;3587737;-59
2022/08/03 04:35:14;;;;;;;;;20.00;19.33;;;;;21.08;78.73;99762.00;6280472;20;2844052;-58
2022/08/03 04:37:48;;;;;;;;;12.33;10.00;;;;;21.12;78.40;99750.63;6311442;20;3530496;-58
2022/08/03 04:40:31;;;;;;;;;23.00;22.33;;;;;21.24;78.00;99751.19;6282592;20;3583639;-57
2022/08/03 04:43:01;;;;;;;;;22.67;20.00;;;;;21.37;78.07;99756.22;6285858;20;3572097;-58
2022/08/03 04:45:34;;;;;;;;;23.33;21.67;;;;;21.31;77.76;99759.59;6282521;20;2847293;-55
2022/08/03 04:48:04;;;;;;;;;24.33;21.67;;;;;21.46;77.49;99758.03;6316051;20;3585713;-56
2022/08/03 04:50:33;;;;;;;;;21.33;20.00;;;;;21.55;77.13;99769.84;6288985;20;3566931;-57
2022/08/03 04:53:04;;;;;;;;;26.00;23.00;;;;;21.59;77.33;99766.63;6282983;20;3587827;-58
2022/08/03 04:55:34;;;;;;;;;22.67;20.67;;;;;21.65;77.09;99767.84;6284177;20;3562766;-58
2022/08/03 04:58:05;;;;;;;;;24.00;22.67;;;;;21.98;76.13;99771.53;6283681;20;3584632;-59
2022/08/03 05:00:33;;;;;;;;;24.33;23.00;;;;;21.72;76.83;99778.97;6286982;20;3577406;-58
2022/08/03 05:03:02;;;;;;;;;22.00;20.00;;;;;21.59;77.57;99772.09;6285386;20;3568020;-65
2022/08/03 05:05:46;;;;;;;;;23.00;22.00;;;;;21.66;77.07;99773.13;6285028;20;3582526;-66
2022/08/03 05:08:18;;;;;;;;;22.00;22.00;;;;;21.76;76.74;99780.34;6285532;20;3584624;-66
2022/08/03 05:10:57;;;;;;;;;23.00;23.00;;;;;21.77;76.82;99779.31;6282801;20;3581603;-66
2022/08/03 05:13:26;;;;;;;;;23.00;21.00;;;;;21.91;76.88;99782.31;6287353;20;3586150;-66
2022/08/03 05:15:55;;;;;;;;;25.00;22.67;;;;;22.14;75.39;99785.28;6280781;20;3583383;-66
2022/08/03 05:18:24;;;;;;;;;23.33;22.33;;;;;22.49;74.35;99793.44;6275980;20;3581569;-66
2022/08/03 05:20:52;;;;;;;;;21.00;21.00;;;;;22.78;73.69;99784.72;6282185;20;3584689;-66
2022/08/03 05:23:21;;;;;;;;;20.67;18.33;;;;;23.17;72.42;99790.38;6282775;20;3577294;-66
2022/08/03 05:25:49;;;;;;;;;21.00;18.00;;;;;23.40;71.51;99792.38;6287510;20;3561716;-66
2022/08/03 05:28:18;;;;;;;;;23.33;19.00;;;;;23.58;70.82;99797.66;6287006;20;3585707;-67
2022/08/03 05:30:47;;;;;;;;;20.33;20.00;;;;;23.64;70.54;99792.34;6285322;20;3582525;-66
2022/08/03 05:33:16;;;;;;;;;18.00;16.67;;;;;23.98;69.25;99798.56;6289763;20;3564822;-66
2022/08/03 05:35:44;;;;;;;;;19.33;19.00;;;;;24.11;69.59;99796.09;6285132;20;3571078;-65
2022/08/03 05:38:32;;;;;;;;;18.67;18.00;;;;;24.27;68.17;99804.22;6289946;20;3558559;-65
2022/08/03 05:41:03;;;;;;;;;14.00;14.00;;;;;24.47;68.49;99803.81;6292027;20;2794135;-66
2022/08/03 05:43:48;;;;;;;;;21.67;19.33;;;;;24.51;68.49;99805.16;6322104;20;3574173;-65
2022/08/03 05:46:16;;;;;;;;;16.33;16.00;;;;;24.65;67.33;99801.63;6293168;20;3553349;-65
2022/08/03 05:48:45;;;;;;;;;17.00;17.00;;;;;24.74;66.14;99807.91;6318905;20;3564914;-65
2022/08/03 05:51:14;;;;;;;;;17.67;17.67;;;;;24.35;66.94;99807.97;6291566;20;3573172;-64
2022/08/03 05:53:43;;;;;;;;;19.67;19.67;;;;;24.82;65.18;99809.75;6291311;20;3576292;-64
2022/08/03 05:56:12;;;;;;;;;20.00;20.00;;;;;24.48;66.37;99811.00;6294339;20;3571459;-64
2022/08/03 05:58:47;;;;;;;;;17.00;17.00;;;;;25.09;64.21;99814.69;6287097;20;2829475;-64
2022/08/03 06:01:17;;;;;;;;;22.33;21.33;;;;;24.91;63.81;99806.75;6292149;20;3581912;-64
2022/08/03 06:03:47;;;;;;;;;20.67;20.67;;;;;25.08;63.89;99812.09;6290617;20;3583644;-64
2022/08/03 06:06:17;;;;;;;;;20.00;18.67;;;;;25.27;63.13;99810.75;6288990;20;3577337;-58
2022/08/03 06:08:47;;;;;;;;;19.33;19.33;;;;;25.26;64.19;99820.91;6292409;20;3574191;-57
2022/08/03 06:11:16;;;;;;;;;21.67;21.67;;;;;25.54;62.86;99817.50;6286846;20;3573580;-57
2022/08/03 06:13:46;;;;;;;;;19.33;17.67;;;;;25.79;62.33;99820.84;6288756;20;3574370;-57
2022/08/03 06:16:14;;;;;;;;;21.00;20.33;;;;;25.47;62.96;99822.94;6288529;20;3585669;-54
2022/08/03 06:18:43;;;;;;;;;21.33;21.33;;;;;26.00;61.17;99823.72;6289791;20;3587745;-55
2022/08/03 06:21:12;;;;;;;;;22.50;21.50;;;;;25.98;61.41;99819.44;6291179;20;3461691;-56
2022/08/03 06:23:44;;;;;;;;;18.00;18.00;;;;;25.59;61.38;99821.44;6318415;20;3566013;-58
2022/08/03 06:26:27;;;;;;;;;24.00;24.00;;;;;25.79;61.65;99826.34;6291422;20;3594037;-57
2022/08/03 06:28:56;;;;;;;;;24.67;22.00;;;;;26.19;61.07;99826.94;6288480;20;3591935;-58
2022/08/03 06:31:28;;;;;;;;;22.00;20.67;;;;;26.34;60.40;99827.75;6290895;20;3565877;-58
2022/08/03 06:34:05;;;;;;;;;20.33;20.33;;;;;26.35;59.75;99832.19;6291907;20;3576401;-58
2022/08/03 06:36:54;;;;;;;;;20.00;19.00;;;;;26.70;59.11;99835.19;6286208;20;2727499;-57
2022/08/03 06:39:29;;;;;;;;;23.67;22.00;;;;;26.54;58.77;99835.41;6287620;20;3585706;-58
2022/08/03 06:41:58;;;;;;;;;27.67;23.67;;;;;26.75;58.08;99838.19;6288603;20;1898244;-57
2022/08/03 06:44:27;;;;;;;;;23.33;21.00;;;;;26.82;57.98;99833.59;6318735;20;3579418;-58
2022/08/03 06:46:57;;;;;;;;;17.67;16.67;;;;;27.10;57.65;99846.59;6321980;20;3563819;-58
2022/08/03 06:49:26;;;;;;;;;19.00;19.00;;;;;27.56;55.80;99857.19;6287635;20;3577418;-58
2022/08/03 06:51:56;;;;;;;;;23.33;21.67;;;;;27.03;56.46;99851.19;6288798;20;3582570;-59
2022/08/03 06:54:34;;;;;;;;;20.33;20.00;;;;;27.81;55.29;99848.50;6291238;20;3582587;-58
2022/08/03 06:57:04;;;;;;;;;24.00;24.00;;;;;28.34;53.36;99857.06;6287135;20;3586745;-56
2022/08/03 06:59:33;;;;;;;;;18.00;18.00;;;;;28.38;52.97;99847.28;6284916;20;2831549;-58
2022/08/03 07:02:22;;;;;;;;;21.00;21.00;;;;;27.97;53.35;99857.28;6289994;20;3585652;-66
2022/08/03 07:04:50;;;;;;;;;14.33;14.33;;;;;28.78;52.01;99866.78;6289313;20;2483870;-66
2022/08/03 07:07:20;;;;;;;;;19.33;18.67;;;;;28.07;52.37;99865.22;6316436;20;3560649;-66
2022/08/03 07:09:49;;;;;;;;;21.00;19.33;;;;;28.57;52.24;99854.84;6317232;20;3581499;-65
2022/08/03 07:12:27;;;;;;;;;22.67;21.00;;;;;29.28;50.57;99859.00;6318457;20;3573187;-65
2022/08/03 07:14:58;;;;;;;;;19.33;19.33;;;;;29.61;49.63;99867.31;6321687;20;3572223;-62
2022/08/03 07:17:33;;;;;;;;;21.33;20.00;;;;;29.09;50.62;99856.03;6288333;20;3584632;-61
2022/08/03 07:20:08;;;;;;;;;24.33;22.00;;;;;29.82;49.31;99857.09;6286590;20;3576244;-60
2022/08/03 07:22:37;;;;;;;;;24.67;21.67;;;;;29.52;49.96;99858.38;6285664;20;3583715;-60
2022/08/03 07:25:08;;;;;;;;;20.00;19.00;;;;;30.04;48.79;99860.44;6318262;20;3576356;-60
2022/08/03 07:27:37;;;;;;;;;20.33;17.33;;;;;30.52;47.78;99863.72;6316814;20;3573129;-61
2022/08/03 07:30:08;;;;;;;;;16.33;16.33;;;;;30.25;48.14;99862.97;6317683;20;3566887;-60
2022/08/03 07:32:37;;;;;;;;;19.67;19.67;;;;;29.89;48.82;99867.09;6291350;20;3564844;-59
2022/08/03 07:35:18;;;;;;;;;19.67;17.67;;;;;29.95;48.47;99859.84;6286091;20;2817955;-60
2022/08/03 07:37:53;;;;;;;;;17.00;17.00;;;;;30.17;48.07;99861.25;6317562;20;3567048;-60
2022/08/03 07:40:23;;;;;;;;;19.67;19.00;;;;;30.37;47.42;99865.91;6317433;20;2833701;-59
2022/08/03 07:43:02;;;;;;;;;22.33;19.33;;;;;29.91;48.03;99866.88;6319618;20;3580424;-59
2022/08/03 07:45:31;;;;;;;;;16.33;16.33;;;;;30.43;46.80;99867.81;6321116;20;3565047;-59
2022/08/03 07:48:00;;;;;;;;;21.33;20.33;;;;;30.17;46.93;99865.94;6283816;20;3583533;-60
2022/08/03 07:50:29;;;;;;;;;20.67;20.33;;;;;30.29;47.19;99864.25;6318221;20;3576370;-60
2022/08/03 07:52:58;;;;;;;;;22.00;20.00;;;;;30.90;45.98;99864.81;6286335;20;3562910;-63
2022/08/03 07:55:27;;;;;;;;;22.33;18.67;;;;;30.86;46.42;99863.56;6286963;20;3575236;-64
2022/08/03 07:58:04;;;;;;;;;21.33;20.67;;;;;31.26;44.78;99859.44;6287409;20;3572166;-64
2022/08/03 08:00:33;;;;;;;;;19.00;19.00;;;;;30.77;45.18;99865.72;6287862;20;3576263;-64
2022/08/03 08:03:03;;;;;;;;;16.00;16.00;;;;;30.28;46.02;99859.78;6285717;20;2822184;-64
2022/08/03 08:05:33;;;;;;;;;17.00;16.33;;;;;30.91;45.80;99866.50;6287219;20;3561416;-65
2022/08/03 08:08:04;;;;;;;;;17.67;16.33;;;;;31.33;44.23;99858.53;6317167;20;3559598;-64
2022/08/03 08:10:35;;;;;;;;;19.71;19.71;;;;;31.30;44.65;99859.00;6337226;20;3573293;-65
2022/08/03 08:13:04;;;;;;;;;17.67;17.67;;;;;31.65;43.92;99865.75;6289294;20;3562980;-65
2022/08/03 08:15:33;;;;;;;;;18.67;18.00;;;;;31.84;43.01;99863.88;6288374;20;3582513;-65
2022/08/03 08:18:02;;;;;;;;;19.00;17.00;;;;;31.84;42.69;99871.34;6288579;20;3567947;-65
2022/08/03 08:20:37;;;;;;;;;15.67;15.67;;;;;31.48;43.34;99872.94;6288612;20;3547099;-64
2022/08/03 08:23:08;;;;;;;;;19.67;19.67;;;;;31.51;43.00;99869.72;6290419;20;3568986;-64
2022/08/03 08:25:57;;;;;;;;;17.00;17.00;;;;;31.57;42.20;99866.06;6288614;20;3550248;-64
2022/08/03 08:28:25;;;;;;;;;18.33;18.00;;;;;31.72;41.83;99874.00;6289408;20;3575226;-64
2022/08/03 08:31:02;;;;;;;;;16.67;16.67;;;;;30.93;43.39;99869.91;6286579;20;3565954;-65
2022/08/03 08:33:31;;;;;;;;;18.00;17.00;;;;;31.44;43.50;99864.25;6319201;20;3563779;-64
2022/08/03 08:36:20;;;;;;;;;17.33;16.00;;;;;31.10;42.92;99868.31;6287896;20;3565832;-65
2022/08/03 08:38:49;;;;;;;;;17.67;16.00;;;;;30.81;43.52;99865.09;6318656;20;3566890;-64
2022/08/03 08:41:18;;;;;;;;;19.33;16.00;;;;;31.51;41.95;99866.94;6289120;20;3564816;-64
2022/08/03 08:43:46;;;;;;;;;15.33;15.33;;;;;32.28;40.53;99873.03;6287512;20;3548161;-64
2022/08/03 08:46:16;;;;;;;;;16.33;16.33;;;;;32.13;40.97;99869.78;6283560;20;3558599;-65
2022/08/03 08:48:53;;;;;;;;;17.00;17.00;;;;;31.98;41.41;99872.94;6286187;20;3577291;-64
2022/08/03 08:51:28;;;;;;;;;16.33;15.00;;;;;31.56;41.24;99864.34;6286541;20;3548157;-64
2022/08/03 08:54:21;;;;;;;;;61.33;50.67;;;;;31.80;41.20;99861.75;6284448;20;3592212;-64
2022/08/03 08:56:51;;;;;;;;;16.33;16.33;;;;;32.41;39.65;99868.38;6282682;20;3553501;-64
2022/08/03 08:59:21;;;;;;;;;16.67;16.33;;;;;32.33;41.15;99858.41;6285650;20;3566017;-63
2022/08/03 09:01:50;;;;;;;;;17.00;16.50;;;;;31.88;40.86;99859.53;6285394;20;2831492;-64
2022/08/03 09:04:19;;;;;;;;;11.67;11.67;;;;;31.97;40.34;99854.56;6285487;20;3509593;-64
2022/08/03 09:06:48;;;;;;;;;18.67;17.00;;;;;31.43;41.46;99853.34;6317053;20;3560665;-64
2022/08/03 09:09:37;;;;;;;;;20.00;17.33;;;;;31.65;41.10;99854.66;6286405;20;3564879;-63
2022/08/03 09:12:25;;;;;;;;;24.00;19.33;;;;;31.40;41.60;99854.66;6285829;20;3573173;-64
2022/08/03 09:15:26;;;;;;;;;19.67;19.67;;;;;31.13;41.81;99858.69;6283293;20;3553344;-64
2022/08/03 09:18:00;;;;;;;;;17.33;15.67;;;;;31.12;42.23;99852.28;6285938;20;3559827;-63
2022/08/03 09:20:33;;;;;;;;;14.67;14.67;;;;;31.09;41.95;99847.19;6286155;20;3539844;-63
2022/08/03 09:23:09;;;;;;;;;12.67;12.67;;;;;31.28;41.94;99846.19;6319186;20;3535687;-63
2022/08/03 09:26:00;;;;;;;;;16.00;15.00;;;;;31.40;41.20;99842.72;6318812;20;3553525;-64
2022/08/03 09:28:34;;;;;;;;;17.00;14.00;;;;;31.89;40.19;99840.97;6284801;20;2811724;-64
2022/08/03 09:31:40;;;;;;;;;16.00;14.00;;;;;32.07;41.11;99838.22;6283475;20;2819013;-63
2022/08/03 09:34:16;;;;;;;;;17.00;17.00;;;;;32.30;39.40;99847.78;6283039;20;2835696;-64
2022/08/03 09:36:51;;;;;;;;;14.50;14.00;;;;;31.84;39.92;99838.03;6282171;20;2815075;-64
2022/08/03 09:39:30;;;;;;;;;14.00;14.00;;;;;32.50;38.70;99842.84;6282605;20;3537774;-64
2022/08/03 09:42:18;;;;;;;;;15.00;14.33;;;;;32.66;37.65;99840.50;6288978;20;3535727;-59
2022/08/03 09:44:52;;;;;;;;;12.67;12.67;;;;;32.76;37.30;99835.22;6316188;20;3536684;-58
2022/08/03 09:47:31;;;;;;;;;14.67;13.33;;;;;33.28;35.37;99837.41;6315709;20;3532626;-58
2022/08/03 09:50:07;;;;;;;;;13.00;13.00;;;;;32.80;35.94;99828.94;6314642;20;2808821;-59
2022/08/03 09:52:40;;;;;;;;;14.00;14.00;;;;;32.75;35.93;99830.72;6272187;20;2483622;-59
2022/08/03 09:55:20;;;;;;;;;12.00;12.00;;;;;32.43;37.30;99836.47;6313377;20;3508720;-58
2022/08/03 09:58:09;;;;;;;;;14.67;13.33;;;;;32.33;37.36;99825.06;6316700;20;3537899;-56
2022/08/03 10:01:03;;;;;;;;;13.00;13.00;;;;;31.77;37.25;99820.56;6280929;20;2802356;-58
2022/08/03 10:03:37;;;;;;;;;12.00;12.00;;;;;32.32;36.98;99823.38;6279718;20;3525352;-58
2022/08/03 10:06:26;;;;;;;;;11.67;11.67;;;;;32.11;36.09;99820.00;6283942;20;3521115;-54
2022/08/03 10:09:16;;;;;;;;;11.33;11.33;;;;;31.01;38.31;99811.41;6315772;20;2787960;-59
2022/08/03 10:11:45;;;;;;;;;9.67;9.67;;;;;31.67;37.32;99810.84;6309713;20;3491879;-59
2022/08/03 10:14:17;;;;;;;;;7.67;7.67;;;;;32.56;35.78;99819.66;6315746;20;2742063;-59
2022/08/03 10:16:48;;;;;;;;;11.00;11.00;;;;;32.54;36.25;99813.47;6316622;20;3517957;-58
2022/08/03 10:19:18;;;;;;;;;13.00;13.00;;;;;32.75;36.63;99811.25;6316624;20;3521097;-59
2022/08/03 10:21:54;;;;;;;;;8.33;8.33;;;;;32.34;36.19;99816.50;6311645;20;2750316;-59
2022/08/03 10:24:29;;;;;;;;;14.33;14.33;;;;;32.26;36.41;99813.22;6317479;20;3539911;-57
2022/08/03 10:27:10;;;;;;;;;14.33;14.33;;;;;32.50;36.48;99809.47;6320005;20;3546087;-58
2022/08/03 10:29:48;;;;;;;;;15.00;13.67;;;;;32.88;36.92;99810.22;6320499;20;3546068;-58
2022/08/03 10:32:38;;;;;;;;;12.67;11.67;;;;;32.68;36.04;99804.97;6293141;20;3514856;-59
2022/08/03 10:35:14;;;;;;;;;13.00;13.00;;;;;32.81;36.47;99801.97;6317593;20;2810721;-58
2022/08/03 10:38:16;;;;;;;;;11.00;11.00;;;;;32.58;36.67;99794.41;6283116;20;2781513;-59
2022/08/03 10:40:46;;;;;;;;;14.00;12.33;;;;;33.47;36.01;99796.41;6318273;20;3529449;-59
2022/08/03 10:43:26;;;;;;;;;15.00;13.33;;;;;33.24;35.28;99792.53;6322778;20;3534596;-59
2022/08/03 10:45:56;;;;;;;;;9.00;9.00;;;;;33.20;35.47;99800.53;6326412;20;2758603;-59
2022/08/03 10:48:25;;;;;;;;;13.33;13.33;;;;;33.57;35.33;99797.53;6320852;20;3533766;-58
2022/08/03 10:50:54;;;;;;;;;14.00;13.00;;;;;33.62;34.18;99794.00;6319776;20;3523155;-59
2022/08/03 10:53:44;;;;;;;;;16.00;14.00;;;;;32.71;35.44;99788.66;6314860;20;2818028;-59
2022/08/03 11:00:05;;;;;;;;;63.00;49.67;;;;;33.25;35.39;99780.31;6313186;20;3607520;-63
2022/08/03 11:03:15;;;;;;;;;18.00;18.00;;;;;33.96;34.92;99778.34;6281909;20;3569068;-64
2022/08/03 11:05:53;;;;;;;;;12.00;12.00;;;;;33.28;35.64;99776.19;6314601;20;2808706;-64
2022/08/03 11:08:29;;;;;;;;;14.33;13.00;;;;;32.74;36.92;99765.06;6286831;20;3529421;-63
2022/08/03 11:11:22;;;;;;;;;14.00;13.50;;;;;32.97;36.36;99759.56;6314544;20;2802382;-64
2022/08/03 11:14:02;;;;;;;;;13.50;13.50;;;;;33.49;35.09;99760.81;6281881;20;2805676;-63
2022/08/03 11:16:35;;;;;;;;;16.00;14.50;;;;;33.04;35.97;99765.03;6281340;20;2818995;-64
2022/08/03 11:19:08;;;;;;;;;14.00;14.00;;;;;33.62;36.20;99760.59;6286245;20;3536699;-64
2022/08/03 11:21:50;;;;;;;;;13.33;13.00;;;;;33.87;34.90;99763.94;6318259;20;3537753;-64
2022/08/03 11:24:50;;;;;;;;;10.33;10.33;;;;;34.44;34.02;99762.31;6319239;20;3494091;-64
2022/08/03 11:27:20;;;;;;;;;14.67;14.67;;;;;34.22;33.38;99757.44;6315240;20;3535699;-64
2022/08/03 11:30:15;;;;;;;;;14.00;12.67;;;;;33.71;33.85;99748.00;6320256;20;3527468;-64
2022/08/03 11:32:43;;;;;;;;;12.00;12.00;;;;;34.22;33.31;99754.66;6320350;20;3535645;-64
2022/08/03 11:35:34;;;;;;;;;11.67;11.67;;;;;33.82;33.56;99752.69;6318973;20;3521043;-64
2022/08/03 11:38:06;;;;;;;;;13.33;13.33;;;;;33.97;33.40;99745.78;6322838;20;3524318;-65
2022/08/03 11:40:47;;;;;;;;;14.67;13.00;;;;;34.00;33.49;99745.28;6321185;20;3529388;-64
2022/08/03 11:43:21;;;;;;;;;13.33;13.33;;;;;34.31;32.72;99747.63;6319062;20;3529419;-64
2022/08/03 11:46:02;;;;;;;;;14.67;13.33;;;;;33.88;33.29;99732.19;6322556;20;3536709;-65
2022/08/03 11:48:43;;;;;;;;;13.00;13.00;;;;;33.32;34.22;99722.59;6322564;20;3537727;-64
2022/08/03 11:51:28;;;;;;;;;9.33;9.33;;;;;33.73;34.35;99737.47;6316169;20;3477354;-63